Time;durP1;ratioP1;P1;durP2;ratioP2;P2;SDS_P1;SDS_P2;PMS_P1;PMS_P2;Temp;Humidity;BMP_temperature;BMP_pressure;BME280_temperature;BME280_humidity;BME280_pressure;Samples;Min_cycle;Max_cycle;Signal;HPM_P1;HPM_P2
2024/04/22 00:00:48;;;;;;;16.30;12.70;;;;;;;1.26;62.99;101002.20;111256;1252;22258;-65
2024/04/22 00:03:37;;;;;;;20.80;11.60;;;;;;;1.22;63.01;101004.22;111241;1252;21953;-64
2024/04/22 00:06:06;;;;;;;17.80;11.60;;;;;;;1.20;63.00;101003.22;111256;1252;21950;-64
2024/04/22 00:08:35;;;;;;;14.90;11.00;;;;;;;1.17;63.15;101005.19;111273;1252;22226;-67
2024/04/22 00:11:04;;;;;;;20.10;12.60;;;;;;;1.13;62.84;101001.27;111276;1252;21959;-65
2024/04/22 00:13:34;;;;;;;18.50;12.50;;;;;;;1.09;62.99;101004.66;111252;1252;23673;-64
2024/04/22 00:16:04;;;;;;;17.50;12.40;;;;;;;1.06;62.97;101005.42;111329;1252;23224;-65
2024/04/22 00:18:33;;;;;;;18.40;11.40;;;;;;;1.02;63.14;101002.72;111288;1252;21955;-65
2024/04/22 00:21:02;;;;;;;16.90;10.90;;;;;;;0.97;63.25;100999.17;111173;1252;21961;-65
2024/04/22 00:23:31;;;;;;;16.40;10.90;;;;;;;0.94;63.26;101002.70;111289;1247;21952;-64
2024/04/22 00:26:00;;;;;;;17.30;11.00;;;;;;;0.92;63.47;101000.33;111212;1252;21957;-68
2024/04/22 00:28:30;;;;;;;16.60;10.30;;;;;;;0.90;63.46;100995.85;111305;1252;22732;-68
2024/04/22 00:30:59;;;;;;;16.70;12.10;;;;;;;0.88;63.80;100992.06;111364;1252;21964;-65
2024/04/22 00:33:28;;;;;;;18.00;13.30;;;;;;;0.85;63.67;100986.77;111330;1252;21954;-66
2024/04/22 00:35:59;;;;;;;19.60;14.00;;;;;;;0.82;63.57;100984.74;111211;1252;21948;-66
2024/04/22 00:38:29;;;;;;;19.60;13.80;;;;;;;0.81;63.69;100980.27;111238;1252;22995;-65
2024/04/22 00:40:59;;;;;;;16.60;11.90;;;;;;;0.80;63.65;100981.48;111283;1249;23013;-64
2024/04/22 00:43:28;;;;;;;15.50;12.20;;;;;;;0.76;63.73;100978.80;111356;1252;21951;-66
2024/04/22 00:45:57;;;;;;;15.10;12.00;;;;;;;0.73;63.64;100977.81;111245;1252;21950;-65
2024/04/22 00:48:27;;;;;;;13.40;11.50;;;;;;;0.69;63.71;100974.09;111372;1252;21950;-65
2024/04/22 00:50:57;;;;;;;16.00;11.40;;;;;;;0.64;63.51;100971.39;111300;1252;23021;-65
2024/04/22 00:53:27;;;;;;;14.80;10.10;;;;;;;0.62;63.73;100970.23;111156;1252;206917;-64
2024/04/22 00:55:57;;;;;;;19.60;11.20;;;;;;;0.59;63.76;100969.07;111211;1252;23682;-64
2024/04/22 00:58:27;;;;;;;11.70;9.20;;;;;;;0.56;63.81;100964.96;111344;1252;21953;-65
2024/04/22 01:00:57;;;;;;;12.00;8.40;;;;;;;0.55;63.90;100970.36;111299;1252;21980;-66
2024/04/22 01:03:27;;;;;;;14.60;9.20;;;;;;;0.55;63.78;100969.49;111288;1245;21962;-66
2024/04/22 01:05:56;;;;;;;12.50;8.90;;;;;;;0.55;64.01;100978.16;111132;1252;22039;-65
2024/04/22 01:08:26;;;;;;;13.90;8.20;;;;;;;0.54;63.69;100981.98;111303;1252;22067;-66
2024/04/22 01:10:55;;;;;;;9.30;7.30;;;;;;;0.50;63.76;100981.20;111171;1252;21971;-66
2024/04/22 01:13:24;;;;;;;11.10;8.60;;;;;;;0.47;63.78;100984.36;111136;1252;21960;-66
2024/04/22 01:15:53;;;;;;;13.60;9.10;;;;;;;0.43;63.72;100975.94;111292;1252;22013;-66
2024/04/22 01:18:21;;;;;;;15.90;9.60;;;;;;;0.42;63.68;100977.02;111294;1252;21953;-68
2024/04/22 01:20:50;;;;;;;12.90;8.90;;;;;;;0.41;63.75;100972.88;111229;1252;23672;-66
2024/04/22 01:23:19;;;;;;;17.20;8.90;;;;;;;0.39;63.96;100970.82;111331;1252;21962;-65
2024/04/22 01:25:57;;;;;;;13.80;8.80;;;;;;;0.38;63.97;100968.26;111237;1252;21965;-66
2024/04/22 01:28:26;;;;;;;13.60;8.80;;;;;;;0.37;64.07;100966.52;111295;1252;23550;-68
2024/04/22 01:30:55;;;;;;;12.50;8.30;;;;;;;0.37;64.27;100959.95;111376;1252;21952;-67
2024/04/22 01:33:24;;;;;;;12.90;8.50;;;;;;;0.37;64.35;100958.03;111345;1252;22049;-66
2024/04/22 01:35:53;;;;;;;14.40;8.50;;;;;;;0.37;64.15;100958.20;111272;1252;21957;-68
2024/04/22 01:38:22;;;;;;;12.30;7.80;;;;;;;0.37;64.25;100954.23;111300;1252;21948;-67
2024/04/22 01:40:50;;;;;;;13.20;8.50;;;;;;;0.36;64.23;100954.77;111283;1252;21949;-66
2024/04/22 01:43:19;;;;;;;12.10;8.50;;;;;;;0.35;64.25;100950.47;111394;1252;22426;-66
2024/04/22 01:45:48;;;;;;;13.30;8.80;;;;;;;0.33;64.16;100952.39;111229;1252;21949;-68
2024/04/22 01:48:17;;;;;;;13.70;8.90;;;;;;;0.33;64.14;100953.79;111298;1252;21973;-66
2024/04/22 01:50:47;;;;;;;11.60;8.50;;;;;;;0.31;64.08;100957.80;111335;1252;21954;-67
2024/04/22 01:53:16;;;;;;;13.10;9.50;;;;;;;0.29;64.19;100955.41;111315;1252;22019;-66
2024/04/22 01:55:44;;;;;;;17.80;9.90;;;;;;;0.28;64.35;100952.48;111207;1252;22147;-66
2024/04/22 01:58:14;;;;;;;16.00;10.20;;;;;;;0.29;64.49;100952.13;111269;1252;21949;-65
2024/04/22 02:00:43;;;;;;;17.10;10.20;;;;;;;0.31;64.68;100954.17;111276;1252;21950;-66
2024/04/22 02:03:11;;;;;;;12.20;8.70;;;;;;;0.33;64.59;100958.45;111234;1252;21940;-66
2024/04/22 02:05:41;;;;;;;12.90;9.30;;;;;;;0.35;64.57;100957.38;111306;1252;21950;-66
2024/04/22 02:08:10;;;;;;;12.10;9.20;;;;;;;0.37;64.64;100955.45;111330;1252;22989;-67
2024/04/22 02:10:38;;;;;;;15.90;9.60;;;;;;;0.40;64.75;100952.63;111345;1252;21951;-67
2024/04/22 02:13:08;;;;;;;14.70;9.20;;;;;;;0.44;64.64;100954.98;111252;1252;22515;-66
2024/04/22 02:15:37;;;;;;;11.60;8.80;;;;;;;0.47;64.64;100955.59;111300;1252;21987;-66
2024/04/22 02:18:06;;;;;;;16.00;9.20;;;;;;;0.51;64.61;100950.66;111317;1252;21949;-67
2024/04/22 02:20:36;;;;;;;13.60;8.90;;;;;;;0.56;64.53;100950.42;111590;1252;21923;-67
2024/04/22 02:23:04;;;;;;;10.80;8.90;;;;;;;0.58;64.37;100951.41;111259;1252;21948;-65
2024/04/22 02:25:33;;;;;;;13.30;8.60;;;;;;;0.61;64.48;100953.77;111307;1252;21956;-66
2024/04/22 02:28:02;;;;;;;12.50;8.80;;;;;;;0.65;64.29;100957.86;111266;1252;22091;-65
2024/04/22 02:30:31;;;;;;;14.10;8.40;;;;;;;0.69;64.15;100953.27;111252;1252;21953;-64
2024/04/22 02:33:00;;;;;;;11.20;8.00;;;;;;;0.71;64.09;100953.06;111315;1252;21948;-65
2024/04/22 02:35:29;;;;;;;14.90;8.70;;;;;;;0.75;64.36;100953.17;111276;1252;23481;-65
2024/04/22 02:37:58;;;;;;;12.00;8.00;;;;;;;0.79;64.25;100950.13;111193;1252;22126;-67
2024/04/22 02:40:27;;;;;;;11.50;8.60;;;;;;;0.85;64.30;100949.85;111296;1252;21952;-67
2024/04/22 02:42:56;;;;;;;11.30;8.80;;;;;;;0.87;63.97;100944.41;111409;1252;23747;-66
2024/04/22 02:45:26;;;;;;;14.80;9.80;;;;;;;0.89;63.77;100939.34;111387;1252;21957;-65
2024/04/22 02:47:55;;;;;;;18.00;11.00;;;;;;;0.90;63.49;100936.71;111678;1252;23598;-66
2024/04/22 02:50:24;;;;;;;15.10;12.40;;;;;;;0.90;63.18;100938.27;111356;1252;21963;-65
2024/04/22 02:52:53;;;;;;;22.50;15.50;;;;;;;0.91;63.18;100937.06;111265;1251;22722;-65
2024/04/22 02:55:28;;;;;;;22.30;18.00;;;;;;;0.92;63.23;100937.21;111314;1252;21986;-65
2024/04/22 02:57:58;;;;;;;32.00;25.70;;;;;;;0.94;63.39;100933.86;111267;1252;24508;-66
2024/04/22 03:00:27;;;;;;;32.80;22.10;;;;;;;0.97;63.34;100933.10;111304;1252;22425;-68
2024/04/22 03:02:56;;;;;;;24.90;16.70;;;;;;;1.01;63.23;100934.94;111148;1252;22415;-65
2024/04/22 03:05:25;;;;;;;20.60;13.00;;;;;;;1.03;63.28;100928.83;111344;1252;23741;-67
2024/04/22 03:07:54;;;;;;;16.00;11.20;;;;;;;1.06;63.14;100925.84;111381;1252;21960;-67
2024/04/22 03:10:23;;;;;;;13.30;10.20;;;;;;;1.09;63.20;100925.60;111239;1252;21950;-66
2024/04/22 03:12:52;;;;;;;17.10;10.40;;;;;;;1.12;63.15;100918.58;111303;1252;22732;-66
2024/04/22 03:15:20;;;;;;;14.40;9.50;;;;;;;1.16;62.73;100919.02;111628;1252;22424;-66
2024/04/22 03:17:49;;;;;;;13.10;9.00;;;;;;;1.17;62.68;100916.39;111267;1252;21961;-67
2024/04/22 03:20:18;;;;;;;11.70;8.10;;;;;;;1.18;62.56;100915.85;111334;1252;22718;-67
2024/04/22 03:22:50;;;;;;;12.00;8.00;;;;;;;1.19;62.34;100915.80;111267;1252;22744;-67
2024/04/22 03:25:19;;;;;;;11.80;7.60;;;;;;;1.19;62.56;100914.24;111377;1252;21953;-68
2024/04/22 03:27:47;;;;;;;9.80;7.10;;;;;;;1.21;62.46;100914.21;111390;1252;23461;-66
2024/04/22 03:30:16;;;;;;;10.10;7.60;;;;;;;1.23;62.52;100911.73;111066;1252;21976;-66
2024/04/22 03:32:45;;;;;;;10.10;6.50;;;;;;;1.25;62.54;100915.85;111348;1252;22050;-65
2024/04/22 03:35:14;;;;;;;11.10;7.40;;;;;;;1.28;62.65;100913.37;111139;1252;21953;-65
2024/04/22 03:37:43;;;;;;;9.70;7.70;;;;;;;1.32;62.50;100917.95;111287;1252;21964;-65
2024/04/22 03:40:12;;;;;;;8.90;7.60;;;;;;;1.35;62.76;100920.65;111274;1252;21949;-64
2024/04/22 03:42:41;;;;;;;10.30;7.50;;;;;;;1.38;62.76;100918.67;111302;1252;21957;-65
2024/04/22 03:45:09;;;;;;;14.10;7.70;;;;;;;1.41;62.58;100918.08;111231;1252;21948;-66
2024/04/22 03:50:26;;;;;;;8.60;7.50;;;;;;;1.42;62.27;100921.54;111257;1252;22442;-66
2024/04/22 03:52:55;;;;;;;11.70;8.50;;;;;;;1.42;62.11;100920.83;111236;1252;22426;-66
2024/04/22 03:55:24;;;;;;;14.00;8.10;;;;;;;1.44;62.11;100919.91;111350;1252;22257;-66
2024/04/22 03:57:53;;;;;;;12.60;9.20;;;;;;;1.48;62.13;100922.09;111274;1252;21952;-68
2024/04/22 04:00:22;;;;;;;12.80;9.20;;;;;;;1.52;62.06;100922.67;111265;1252;23595;-66
2024/04/22 04:02:51;;;;;;;13.30;9.50;;;;;;;1.56;62.15;100926.77;111327;1252;22378;-68
2024/04/22 04:05:20;;;;;;;14.80;9.50;;;;;;;1.60;62.05;100931.69;111374;1252;21958;-66
2024/04/22 04:07:51;;;;;;;12.00;9.80;;;;;;;1.64;61.85;100927.27;111429;1252;23009;-67
2024/04/22 04:10:20;;;;;;;12.80;9.00;;;;;;;1.68;61.86;100928.23;111397;1252;21970;-66
2024/04/22 04:12:49;;;;;;;15.90;8.40;;;;;;;1.72;61.67;100925.70;111178;1252;21991;-66
2024/04/22 04:15:18;;;;;;;9.70;7.50;;;;;;;1.75;61.23;100924.05;111274;1252;21949;-66
2024/04/22 04:17:47;;;;;;;9.90;7.60;;;;;;;1.78;61.11;100925.02;111364;1252;21953;-65
2024/04/22 04:20:16;;;;;;;7.20;6.40;;;;;;;1.77;60.86;100923.48;111322;1252;21949;-65
2024/04/22 04:22:44;;;;;;;11.60;6.40;;;;;;;1.79;60.75;100923.61;111332;1252;21960;-66
2024/04/22 04:25:14;;;;;;;6.70;5.70;;;;;;;1.79;60.75;100919.79;111335;1252;21950;-66
2024/04/22 04:27:43;;;;;;;13.70;5.50;;;;;;;1.82;60.76;100920.74;111162;1248;23010;-65
2024/04/22 04:30:12;;;;;;;10.90;6.50;;;;;;;1.84;60.74;100914.80;111350;1252;22742;-67
2024/04/22 04:32:41;;;;;;;7.00;6.30;;;;;;;1.86;60.65;100917.17;111332;1252;21992;-68
2024/04/22 04:35:10;;;;;;;9.30;6.10;;;;;;;1.89;60.72;100918.14;111340;1252;21967;-67
2024/04/22 04:37:38;;;;;;;9.30;6.70;;;;;;;1.91;60.51;100913.58;111223;1252;23580;-68
2024/04/22 04:40:08;;;;;;;8.40;6.80;;;;;;;1.91;60.56;100909.40;111292;1252;21957;-66
2024/04/22 04:42:37;;;;;;;15.00;7.00;;;;;;;1.91;60.30;100912.00;111323;1252;24612;-66
2024/04/22 04:45:06;;;;;;;8.00;6.30;;;;;;;1.92;60.20;100913.38;111386;1252;22012;-65
2024/04/22 04:47:35;;;;;;;7.60;5.70;;;;;;;1.92;60.21;100912.85;111299;1252;21962;-65
2024/04/22 04:50:05;;;;;;;9.20;6.70;;;;;;;1.92;60.17;100909.71;111311;1252;21949;-66
2024/04/22 04:52:34;;;;;;;7.80;6.40;;;;;;;1.93;60.09;100906.91;111342;1252;22756;-64
2024/04/22 04:55:04;;;;;;;14.60;7.40;;;;;;;1.95;60.35;100903.74;111235;1252;23675;-65
2024/04/22 04:57:33;;;;;;;8.30;5.90;;;;;;;2.00;60.54;100905.19;111300;1252;23573;-64
2024/04/22 05:00:02;;;;;;;7.80;6.90;;;;;;;2.05;60.52;100908.55;111284;1252;21989;-66
2024/04/22 05:02:31;;;;;;;8.50;6.60;;;;;;;2.10;60.69;100904.23;111318;1252;23571;-65
2024/04/22 05:05:00;;;;;;;9.90;7.10;;;;;;;2.13;60.29;100901.53;111273;1252;22721;-64
2024/04/22 05:07:31;;;;;;;6.80;6.10;;;;;;;2.18;60.20;100902.45;111266;1252;22419;-67
2024/04/22 05:09:59;;;;;;;9.20;6.30;;;;;;;2.21;60.05;100908.80;111325;1252;23581;-66
2024/04/22 05:12:29;;;;;;;7.10;4.90;;;;;;;2.26;60.25;100910.58;111271;1252;22234;-65
2024/04/22 05:14:58;;;;;;;7.60;5.00;;;;;;;2.30;59.93;100912.05;111289;1252;21955;-65
2024/04/22 05:17:27;;;;;;;7.30;5.50;;;;;;;2.33;59.97;100913.17;111267;1252;23139;-65
2024/04/22 05:19:56;;;;;;;10.20;5.70;;;;;;;2.36;60.00;100916.90;111294;1252;21958;-65
2024/04/22 05:22:25;;;;;;;10.00;4.70;;;;;;;2.40;60.05;100917.15;111319;1252;21950;-65
2024/04/22 05:24:53;;;;;;;9.60;5.10;;;;;;;2.48;59.94;100915.36;111166;1252;21959;-65
2024/04/22 05:27:22;;;;;;;7.40;5.00;;;;;;;2.51;59.90;100917.02;111211;1252;21960;-68
2024/04/22 05:29:51;;;;;;;8.20;4.70;;;;;;;2.53;59.82;100919.40;111249;1243;21948;-66
2024/04/22 05:32:21;;;;;;;8.50;5.10;;;;;;;2.58;59.56;100921.02;111313;1252;22728;-65
2024/04/22 05:37:37;;;;;;;9.90;4.80;;;;;;;2.57;59.55;100927.11;111275;1252;21960;-64
2024/04/22 05:40:07;;;;;;;11.10;4.60;;;;;;;2.59;59.62;100931.58;111182;1252;23452;-66
2024/04/22 05:42:36;;;;;;;8.10;4.30;;;;;;;2.61;59.28;100933.63;111329;1252;22659;-66
2024/04/22 05:45:05;;;;;;;7.30;4.80;;;;;;;2.58;59.32;100933.17;111297;1251;21995;-67
2024/04/22 05:47:34;;;;;;;7.40;4.30;;;;;;;2.59;59.33;100936.47;111431;1251;21957;-64
2024/04/22 05:50:04;;;;;;;6.60;4.20;;;;;;;2.62;59.66;100937.75;111315;1251;22123;-64
2024/04/22 05:52:32;;;;;;;8.30;4.80;;;;;;;2.71;59.76;100940.65;111359;1251;21965;-65
2024/04/22 05:55:04;;;;;;;9.50;5.00;;;;;;;2.74;59.57;100943.33;111318;1251;21967;-64
2024/04/22 05:57:32;;;;;;;6.60;4.80;;;;;;;2.79;59.70;100942.83;111320;1251;21918;-65
2024/04/22 06:00:01;;;;;;;9.40;5.10;;;;;;;2.85;59.73;100943.55;111285;1251;21967;-67
2024/04/22 06:02:40;;;;;;;11.40;5.90;;;;;;;2.89;59.58;100943.77;111350;1251;21950;-66
2024/04/22 06:05:09;;;;;;;8.00;5.50;;;;;;;2.92;59.30;100940.02;111312;1251;23656;-64
2024/04/22 06:07:37;;;;;;;8.10;5.50;;;;;;;2.95;59.21;100937.31;111321;1251;23476;-65
2024/04/22 06:10:07;;;;;;;8.70;5.40;;;;;;;2.97;59.12;100942.65;111423;1251;21958;-65
2024/04/22 06:12:36;;;;;;;8.20;5.00;;;;;;;2.99;59.17;100937.23;111381;1251;24316;-65
2024/04/22 06:15:05;;;;;;;9.00;4.60;;;;;;;3.02;59.08;100939.75;111364;1251;21951;-65
2024/04/22 06:17:34;;;;;;;6.50;5.70;;;;;;;3.04;59.08;100941.77;111380;1251;21954;-65
2024/04/22 06:20:07;;;;;;;8.10;6.00;;;;;;;3.09;59.36;100943.37;111290;1251;23570;-65
2024/04/22 06:22:35;;;;;;;8.50;4.90;;;;;;;3.14;59.09;100946.01;111414;1251;21999;-65
2024/04/22 06:25:06;;;;;;;6.50;4.80;;;;;;;3.17;59.08;100946.95;111404;1251;21955;-66
2024/04/22 06:27:35;;;;;;;6.80;4.50;;;;;;;3.19;58.93;100948.61;111341;1251;23010;-66
2024/04/22 06:30:06;;;;;;;9.70;5.70;;;;;;;3.24;58.98;100948.83;111434;1251;21957;-65
2024/04/22 06:32:35;;;;;;;10.90;6.10;;;;;;;3.23;58.73;100951.80;111371;1251;21943;-64
2024/04/22 06:35:05;;;;;;;6.20;5.20;;;;;;;3.26;58.91;100955.91;111109;1251;21954;-66
2024/04/22 06:37:34;;;;;;;6.50;5.40;;;;;;;3.27;58.75;100959.16;111362;1251;21957;-65
2024/04/22 06:40:04;;;;;;;10.00;5.20;;;;;;;3.29;58.61;100960.17;111338;1251;23798;-65
2024/04/22 06:42:32;;;;;;;6.70;5.20;;;;;;;3.32;58.66;100963.73;111334;1251;21954;-64
2024/04/22 06:45:01;;;;;;;11.50;5.30;;;;;;;3.35;58.71;100963.11;111293;1251;21952;-65
2024/04/22 06:47:30;;;;;;;11.10;5.90;;;;;;;3.39;58.69;100967.00;111057;1251;21956;-66
2024/04/22 06:49:59;;;;;;;12.20;5.70;;;;;;;3.43;58.82;100967.03;111387;1251;23569;-65
2024/04/22 06:52:28;;;;;;;9.00;5.40;;;;;;;3.47;58.97;100967.44;111656;1251;22021;-73
2024/04/22 06:54:57;;;;;;;7.00;5.20;;;;;;;3.54;59.07;100968.11;111369;1251;21953;-66
2024/04/22 06:57:26;;;;;;;7.00;5.50;;;;;;;3.62;58.95;100973.59;111381;1251;21947;-67
2024/04/22 06:59:54;;;;;;;8.10;5.90;;;;;;;3.68;58.28;100969.59;111363;1251;21954;-65
2024/04/22 07:02:24;;;;;;;9.10;5.50;;;;;;;3.69;58.25;100967.27;111435;1251;23461;-67
2024/04/22 07:04:53;;;;;;;8.60;5.30;;;;;;;3.71;58.16;100970.70;111320;1251;24431;-67
2024/04/22 07:07:22;;;;;;;5.70;5.10;;;;;;;3.74;58.06;100971.12;111627;1251;21950;-67
2024/04/22 07:09:51;;;;;;;8.80;6.00;;;;;;;3.77;57.99;100973.66;111306;1251;21965;-68
2024/04/22 07:12:20;;;;;;;14.80;7.40;;;;;;;3.79;57.69;100972.55;111646;1251;21961;-68
2024/04/22 07:14:49;;;;;;;17.30;5.50;;;;;;;3.79;57.67;100972.70;111584;1251;21973;-67
2024/04/22 07:17:19;;;;;;;8.90;6.00;;;;;;;3.82;57.67;100974.88;111012;1251;21952;-67
2024/04/22 07:19:51;;;;;;;10.60;6.60;;;;;;;3.89;57.60;100975.50;111502;1251;22022;-66
2024/04/22 07:22:20;;;;;;;9.20;6.00;;;;;;;3.98;57.48;100979.23;111684;1251;21959;-68
2024/04/22 07:24:50;;;;;;;9.60;6.10;;;;;;;4.06;57.31;100979.33;111659;1251;22422;-66
2024/04/22 07:27:32;;;;;;;9.60;5.30;;;;;;;4.15;56.78;100982.16;111309;1251;21956;-66
2024/04/22 07:30:04;;;;;;;8.10;5.00;;;;;;;4.19;55.90;100984.46;111380;1251;22044;-67
2024/04/22 07:32:33;;;;;;;5.80;4.40;;;;;;;4.23;55.57;100989.55;111657;1251;22423;-67
2024/04/22 07:35:02;;;;;;;7.30;4.60;;;;;;;4.31;55.04;100995.22;111614;1251;24292;-68
2024/04/22 07:37:40;;;;;;;5.00;3.50;;;;;;;4.34;54.04;100997.03;111567;1251;23656;-68
2024/04/22 07:40:15;;;;;;;4.70;3.70;;;;;;;4.28;53.48;100993.74;111289;1248;23058;-67
2024/04/22 07:42:47;;;;;;;5.80;3.90;;;;;;;4.26;53.70;100993.81;111668;1251;21950;-69
2024/04/22 07:45:16;;;;;;;5.90;3.90;;;;;;;4.28;53.56;100998.97;111654;1251;23000;-67
2024/04/22 07:47:46;;;;;;;12.80;4.10;;;;;;;4.31;53.69;100995.39;111261;1251;22029;-67
2024/04/22 07:50:16;;;;;;;20.30;4.70;;;;;;;4.36;53.44;100995.40;111423;1251;21943;-67
2024/04/22 07:52:46;;;;;;;6.10;3.60;;;;;;;4.42;53.23;101000.42;111411;1251;21954;-68
2024/04/22 07:55:15;;;;;;;11.30;3.80;;;;;;;4.51;53.32;101000.83;111661;1251;23008;-67
2024/04/22 07:57:48;;;;;;;5.00;3.10;;;;;;;4.60;52.75;101004.52;111608;1251;23699;-68
2024/04/22 08:00:19;;;;;;;7.20;3.50;;;;;;;4.67;52.06;101005.13;111609;1251;23028;-68
2024/04/22 08:02:48;;;;;;;4.70;3.90;;;;;;;4.71;51.84;101001.83;111299;1251;21963;-69
2024/04/22 08:05:18;;;;;;;5.30;3.80;;;;;;;4.77;51.78;101002.50;111324;1251;22743;-66
2024/04/22 08:07:48;;;;;;;6.80;3.30;;;;;;;4.83;51.44;101001.09;111076;1251;22751;-67
2024/04/22 08:10:17;;;;;;;5.00;3.50;;;;;;;4.86;51.01;100999.20;111359;1251;21950;-68
2024/04/22 08:12:46;;;;;;;4.90;2.70;;;;;;;4.85;50.64;100997.84;111673;1251;21950;-68
2024/04/22 08:15:16;;;;;;;6.50;3.60;;;;;;;4.83;50.72;101004.57;111580;1248;21965;-69
2024/04/22 08:17:44;;;;;;;6.20;3.40;;;;;;;4.80;50.54;101007.98;111318;1251;22194;-70
2024/04/22 08:20:13;;;;;;;15.10;3.70;;;;;;;4.76;50.41;101008.13;111340;1251;22005;-68
2024/04/22 08:22:42;;;;;;;4.50;2.70;;;;;;;4.73;50.51;101007.90;111321;1251;21949;-69
2024/04/22 08:25:11;;;;;;;5.30;3.10;;;;;;;4.69;50.06;101006.46;111598;1251;21972;-68
2024/04/22 08:27:40;;;;;;;5.20;3.40;;;;;;;4.67;49.89;101009.66;111613;1251;21957;-67
2024/04/22 08:30:11;;;;;;;4.30;2.70;;;;;;;4.64;49.43;101007.86;111556;1251;21952;-67
2024/04/22 08:32:39;;;;;;;5.10;3.10;;;;;;;4.60;49.09;101002.95;111593;1251;21947;-67
2024/04/22 08:35:09;;;;;;;4.30;2.70;;;;;;;4.56;48.91;100999.60;111599;1251;24354;-68
2024/04/22 08:37:37;;;;;;;5.80;3.10;;;;;;;4.56;49.34;100999.42;111249;1251;23490;-68
2024/04/22 08:40:08;;;;;;;3.80;2.70;;;;;;;4.58;48.67;100999.70;111585;1251;23592;-70
2024/04/22 08:42:38;;;;;;;5.90;3.30;;;;;;;4.62;48.89;100999.72;111600;1251;24098;-67
2024/04/22 08:45:07;;;;;;;4.90;2.70;;;;;;;4.70;48.67;100997.89;111298;1251;21953;-66
2024/04/22 08:47:36;;;;;;;5.30;2.40;;;;;;;4.77;48.52;100996.60;111307;1251;21951;-70
2024/04/22 08:50:06;;;;;;;8.60;2.40;;;;;;;4.83;48.06;101004.73;111301;1251;21987;-66
2024/04/22 08:52:35;;;;;;;3.40;2.00;;;;;;;4.86;47.58;101006.03;111673;1251;22045;-67
2024/04/22 08:55:19;;;;;;;3.60;2.20;;;;;;;4.90;46.91;101010.41;111291;1251;22718;-66
2024/04/22 08:57:49;;;;;;;3.90;2.40;;;;;;;4.91;47.05;101013.52;111025;1251;23580;-68
2024/04/22 09:00:18;;;;;;;3.20;1.90;;;;;;;4.92;46.86;101012.23;111681;1251;23578;-67
2024/04/22 09:02:47;;;;;;;3.80;2.30;;;;;;;4.97;46.72;101016.27;111493;1251;21950;-70
2024/04/22 09:05:17;;;;;;;4.30;2.30;;;;;;;5.01;46.51;101016.13;111601;1251;22420;-68
2024/04/22 09:07:54;;;;;;;5.00;2.60;;;;;;;5.05;46.60;101018.27;111643;1251;23567;-69
2024/04/22 09:10:23;;;;;;;4.60;2.60;;;;;;;5.10;45.95;101019.11;111659;1251;21957;-69
2024/04/22 09:13:16;;;;;;;2.90;2.10;;;;;;;5.15;45.73;101021.02;111370;1251;22198;-69
2024/04/22 09:15:45;;;;;;;8.30;2.90;;;;;;;5.21;45.80;101022.02;111415;1251;22026;-68
2024/04/22 09:18:14;;;;;;;9.20;2.80;;;;;;;5.28;45.86;101022.30;111333;1251;23598;-68
2024/04/22 09:20:43;;;;;;;4.90;2.50;;;;;;;5.31;45.32;101021.31;111131;1251;22023;-67
2024/04/22 09:23:12;;;;;;;3.80;2.90;;;;;;;5.29;45.36;101021.55;111357;1251;21956;-67
2024/04/22 09:25:42;;;;;;;7.90;2.10;;;;;;;5.27;45.61;101027.38;111656;1251;21952;-67
2024/04/22 09:28:13;;;;;;;3.30;2.20;;;;;;;5.26;45.05;101026.56;111318;1251;21948;-68
2024/04/22 09:30:47;;;;;;;5.50;2.80;;;;;;;5.26;45.21;101022.89;111345;1251;21955;-68
2024/04/22 09:33:21;;;;;;;7.30;3.50;;;;;;;5.28;45.29;101022.46;111354;1251;22446;-67
2024/04/22 09:35:53;;;;;;;4.20;2.80;;;;;;;5.30;45.26;101023.60;111109;1251;22006;-67
2024/04/22 09:38:23;;;;;;;6.30;2.70;;;;;;;5.27;45.22;101021.83;111048;1251;21954;-67
2024/04/22 09:41:12;;;;;;;4.50;3.20;;;;;;;5.21;45.03;101024.65;111397;1251;22416;-67
2024/04/22 09:43:42;;;;;;;4.20;2.80;;;;;;;5.15;45.43;101024.17;111359;1251;23599;-68
2024/04/22 09:46:21;;;;;;;4.10;2.90;;;;;;;5.09;45.79;101022.29;111293;1248;23025;-67
2024/04/22 09:48:51;;;;;;;3.80;3.00;;;;;;;5.04;45.89;101021.27;111629;1251;21952;-68
2024/04/22 09:51:22;;;;;;;10.00;4.50;;;;;;;5.01;46.40;101020.83;111600;1248;22375;-68
2024/04/22 09:53:51;;;;;;;4.70;3.50;;;;;;;5.00;46.53;101019.64;111304;1251;22148;-67
2024/04/22 09:56:34;;;;;;;5.20;3.60;;;;;;;4.95;46.63;101018.79;111425;1251;21949;-67
2024/04/22 09:59:05;;;;;;;12.40;7.40;;;;;;;4.93;46.96;101023.91;111021;1251;23067;-67
2024/04/22 10:01:35;;;;;;;11.20;9.00;;;;;;;4.93;47.25;101025.85;111287;1251;23662;-70
2024/04/22 10:04:04;;;;;;;7.70;4.40;;;;;;;4.92;47.68;101026.59;111612;1251;22044;-67
2024/04/22 10:06:33;;;;;;;6.10;3.40;;;;;;;4.91;46.97;101025.02;110961;1251;21942;-67
2024/04/22 10:09:02;;;;;;;5.20;2.90;;;;;;;4.86;47.04;101022.60;111328;1251;22765;-68
2024/04/22 10:11:32;;;;;;;5.10;3.20;;;;;;;4.78;47.07;101022.02;111565;1251;21967;-68
2024/04/22 10:14:30;;;;;;;5.40;2.80;;;;;;;4.79;46.90;101025.48;111392;1251;23611;-69
2024/04/22 10:17:00;;;;;;;3.10;2.50;;;;;;;4.82;46.49;101024.48;111648;1251;23006;-70
2024/04/22 10:19:31;;;;;;;5.40;2.70;;;;;;;4.87;46.84;101020.45;111623;1251;22153;-69
2024/04/22 10:22:02;;;;;;;5.00;3.50;;;;;;;4.94;47.34;101019.15;111641;1251;22015;-68
2024/04/22 10:24:40;;;;;;;5.20;3.90;;;;;;;5.04;47.45;101015.69;111802;1251;21998;-68
2024/04/22 10:27:11;;;;;;;7.20;4.40;;;;;;;5.14;46.91;101016.36;111632;1251;22039;-70
2024/04/22 10:29:42;;;;;;;5.70;3.90;;;;;;;5.22;46.95;101015.17;111392;1251;25007;-68
2024/04/22 10:32:11;;;;;;;8.10;4.00;;;;;;;5.32;46.89;101013.92;111400;1251;21949;-68
2024/04/22 10:34:43;;;;;;;7.60;3.40;;;;;;;5.38;46.48;101010.91;111634;1251;22051;-68
2024/04/22 10:37:13;;;;;;;4.70;3.30;;;;;;;5.38;46.33;101009.67;111338;1251;21968;-67
2024/04/22 10:39:43;;;;;;;7.70;3.60;;;;;;;5.41;46.49;101010.95;111628;1251;21945;-68
2024/04/22 10:42:14;;;;;;;11.00;4.20;;;;;;;5.41;46.21;101009.58;111384;1251;22718;-67
2024/04/22 10:44:46;;;;;;;5.20;3.70;;;;;;;5.39;46.11;101008.59;111646;1251;22731;-69
2024/04/22 10:47:16;;;;;;;5.10;3.70;;;;;;;5.41;46.21;101006.08;111590;1251;21956;-67
2024/04/22 10:49:46;;;;;;;7.70;4.00;;;;;;;5.49;46.47;101001.73;111069;1251;21956;-66
2024/04/22 10:52:15;;;;;;;7.70;4.00;;;;;;;5.67;46.52;101000.20;111384;1251;23215;-67
2024/04/22 10:54:44;;;;;;;8.50;4.00;;;;;;;5.82;45.98;100998.52;111581;1251;23465;-66
2024/04/22 10:57:15;;;;;;;4.80;3.50;;;;;;;5.94;45.06;100999.98;111354;1251;21952;-66
2024/04/22 10:59:43;;;;;;;5.60;3.90;;;;;;;6.07;44.97;100996.33;111321;1251;22736;-69
2024/04/22 11:02:12;;;;;;;6.10;2.80;;;;;;;6.21;44.48;100996.44;111686;1251;23467;-67
2024/04/22 11:04:42;;;;;;;4.30;2.90;;;;;;;6.25;43.89;100998.25;111747;1251;21954;-68
2024/04/22 11:07:15;;;;;;;4.70;3.10;;;;;;;6.24;43.56;100999.84;111300;1251;21949;-67
2024/04/22 11:09:45;;;;;;;6.80;3.00;;;;;;;6.24;44.19;100998.27;111305;1251;21963;-69
2024/04/22 11:12:15;;;;;;;3.50;2.70;;;;;;;6.26;43.98;101000.62;111326;1251;21954;-68
2024/04/22 11:14:45;;;;;;;5.50;3.40;;;;;;;6.25;43.91;101002.77;111033;1251;23573;-67
2024/04/22 11:17:21;;;;;;;6.30;3.70;;;;;;;6.25;43.90;101003.10;111632;1251;23570;-68
2024/04/22 11:19:50;;;;;;;4.70;2.70;;;;;;;6.26;43.71;101007.29;111371;1251;21943;-66
2024/04/22 11:22:21;;;;;;;3.40;2.30;;;;;;;6.16;43.08;101009.42;111035;1251;21958;-67
2024/04/22 11:24:50;;;;;;;5.20;3.90;;;;;;;6.09;43.50;101010.94;111764;1251;21998;-68
2024/04/22 11:27:19;;;;;;;7.40;4.60;;;;;;;6.12;43.50;101012.76;111280;1251;22031;-68
2024/04/22 11:29:48;;;;;;;5.60;3.20;;;;;;;6.18;43.64;101009.52;111640;1251;21957;-67
2024/04/22 11:32:17;;;;;;;3.50;3.10;;;;;;;6.27;43.26;101010.05;111299;1251;21948;-68
2024/04/22 11:34:46;;;;;;;6.90;5.10;;;;;;;6.32;43.34;101008.77;111362;1251;21942;-66
2024/04/22 11:37:17;;;;;;;10.20;4.70;;;;;;;6.34;43.10;101010.96;111370;1251;22923;-69
2024/04/22 11:39:52;;;;;;;7.10;4.10;;;;;;;6.38;42.69;101017.44;111597;1239;23026;-67